Shamong, New Jersey
Current Conditions -  °F | °C
As of 5:50 PM on Monday 26 Jan 2015 (Local Time) from KVAY Reporting Station
Haze Haze  
Wind Chill: 13°   Ceiling: 1500
Heat Index: 25°   Visibility: 4mi
Dew Point: 21°   Wind: 13mph
Humidity: 86%   Direction: 20°NNE
Pressure: 29.77"   Gusts: NA
Location:  39.7955°N, 74.6301°W
Report Text: KVAY 262250Z AUTO 02011KT 4SM BR BKN015 OVC060 M04/M06 A2977 RMK AO2
Loading
Personal Weather Stations






























Interactive Weather Map New forecast layout! Learn more

10-Day Weather Forecast

Advertisements
Track Severe Weather on mobile